Time;durP1;ratioP1;P1;durP2;ratioP2;P2;SDS_P1;SDS_P2;PMS_P1;PMS_P2;Temp;Humidity;BMP_temperature;BMP_pressure;BME280_temperature;BME280_humidity;BME280_pressure;Samples;Min_cycle;Max_cycle;Signal;HPM_P1;HPM_P2
2022/09/07 00:02:08;;;;;;;0.00;0.00;;;;;;;18.03;100.00;101226.13;4994362;28;20104;-71
2022/09/07 00:04:33;;;;;;;0.00;0.00;;;;;;;18.17;100.00;101230.94;4984600;28;20158;-71
2022/09/07 00:06:59;;;;;;;0.03;0.03;;;;;;;17.90;100.00;101211.03;4988210;28;20625;-71
2022/09/07 00:09:24;;;;;;;0.00;0.00;;;;;;;18.02;100.00;101217.09;4995379;28;20484;-71
2022/09/07 00:11:49;;;;;;;0.00;0.00;;;;;;;18.18;100.00;101215.53;4981519;28;20519;-71
2022/09/07 00:14:14;;;;;;;0.00;0.00;;;;;;;18.09;100.00;101218.16;4980091;28;20033;-71
2022/09/07 00:16:40;;;;;;;0.00;0.00;;;;;;;17.97;100.00;101212.13;4980170;28;20034;-72
2022/09/07 00:19:05;;;;;;;0.00;0.00;;;;;;;17.88;100.00;101206.78;4982387;28;20326;-73
2022/09/07 00:21:31;;;;;;;0.00;0.00;;;;;;;17.83;100.00;101210.84;4979247;28;20038;-71
2022/09/07 00:23:56;;;;;;;0.00;0.00;;;;;;;17.78;100.00;101204.19;4976972;28;20476;-72
2022/09/07 00:26:24;;;;;;;0.00;0.00;;;;;;;17.71;100.00;101216.69;4982315;28;20565;-71
2022/09/07 00:28:51;;;;;;;0.00;0.00;;;;;;;17.74;100.00;101216.38;4979436;28;20026;-71
2022/09/07 00:31:19;;;;;;;0.00;0.00;;;;;;;17.64;100.00;101200.16;4978784;28;20153;-72
2022/09/07 00:33:44;;;;;;;0.00;0.00;;;;;;;17.75;100.00;101205.34;4978048;28;20481;-72
2022/09/07 00:36:10;;;;;;;0.00;0.00;;;;;;;17.70;100.00;101199.53;4980457;28;20036;-72
2022/09/07 00:38:36;;;;;;;0.00;0.00;;;;;;;17.53;100.00;101179.56;4982718;28;20034;-72
2022/09/07 00:41:01;;;;;;;0.00;0.00;;;;;;;17.48;100.00;101192.75;4980215;28;20038;-71
2022/09/07 00:43:32;;;;;;;0.00;0.00;;;;;;;17.47;100.00;101200.03;4986115;28;20026;-71
2022/09/07 00:45:57;;;;;;;0.00;0.00;;;;;;;17.51;100.00;101187.00;4983027;28;21150;-72
2022/09/07 00:48:29;;;;;;;0.00;0.00;;;;;;;17.29;100.00;101163.91;4989415;28;20029;-72
2022/09/07 00:50:58;;;;;;;0.00;0.00;;;;;;;17.39;100.00;101189.09;4983845;28;20048;-71
2022/09/07 00:53:30;;;;;;;0.00;0.00;;;;;;;17.16;100.00;101164.28;4977720;28;20026;-71
2022/09/07 00:55:56;;;;;;;0.00;0.00;;;;;;;17.01;100.00;101148.56;4978096;28;20419;-71
2022/09/07 00:58:22;;;;;;;0.00;0.00;;;;;;;17.17;100.00;101182.28;4980167;28;20117;-71
2022/09/07 01:00:48;;;;;;;0.00;0.00;;;;;;;17.09;100.00;101169.50;4983408;28;20038;-72
2022/09/07 01:03:16;;;;;;;0.00;0.00;;;;;;;17.03;100.00;101162.84;4977213;28;20030;-72
2022/09/07 01:05:45;;;;;;;0.00;0.00;;;;;;;16.93;100.00;101167.44;4996128;28;20120;-72
2022/09/07 01:08:11;;;;;;;0.00;0.00;;;;;;;16.96;100.00;101163.56;4976654;28;20645;-72
2022/09/07 01:10:37;;;;;;;0.00;0.00;;;;;;;17.04;100.00;101177.22;4978173;28;20041;-72
2022/09/07 01:13:02;;;;;;;0.00;0.00;;;;;;;16.95;100.00;101165.41;4985973;28;20025;-72
2022/09/07 01:15:51;;;;;;;0.00;0.00;;;;;;;16.93;100.00;101167.44;4984514;28;20034;-68
2022/09/07 01:18:37;;;;;;;0.00;0.00;;;;;;;16.85;100.00;101170.03;4988401;28;20041;-72
2022/09/07 01:21:13;;;;;;;0.00;0.00;;;;;;;16.80;100.00;101175.94;4991083;28;20034;-72
2022/09/07 01:24:06;;;;;;;0.00;0.00;;;;;;;16.79;100.00;101174.22;4998777;28;20080;-72
2022/09/07 01:27:01;;;;;;;0.00;0.00;;;;;;;16.68;100.00;101174.44;4993417;28;20043;-72
2022/09/07 01:29:31;;;;;;;0.00;0.00;;;;;;;16.66;100.00;101179.16;4998705;28;20057;-71
2022/09/07 01:32:34;;;;;;;0.00;0.00;;;;;;;16.56;100.00;101179.19;4988720;28;20320;-72
2022/09/07 01:35:01;;;;;;;0.00;0.00;;;;;;;16.54;100.00;101175.81;4992512;28;20044;-71
2022/09/07 01:37:42;;;;;;;0.00;0.00;;;;;;;16.47;100.00;101178.25;4998232;28;20057;-71
2022/09/07 01:40:24;;;;;;;0.00;0.00;;;;;;;16.37;100.00;101172.88;4987937;28;20030;-71
2022/09/07 01:42:56;;;;;;;0.00;0.00;;;;;;;16.33;100.00;101172.34;5003971;28;20148;-72
2022/09/07 01:45:26;;;;;;;0.00;0.00;;;;;;;16.22;100.00;101164.38;4988390;28;20123;-72
2022/09/07 01:47:55;;;;;;;0.00;0.00;;;;;;;16.28;100.00;101184.63;4991214;28;20037;-72
2022/09/07 01:50:39;;;;;;;0.00;0.00;;;;;;;16.25;100.00;101184.91;4995120;28;20083;-72
2022/09/07 01:53:14;;;;;;;0.00;0.00;;;;;;;16.30;100.00;101180.75;4990781;28;20156;-72
2022/09/07 01:56:09;;;;;;;0.00;0.00;;;;;;;16.23;100.00;101181.50;4991436;28;20038;-72
2022/09/07 01:58:51;;;;;;;0.00;0.00;;;;;;;16.13;100.00;101173.41;4993392;28;20034;-72
2022/09/07 02:01:39;;;;;;;0.00;0.00;;;;;;;16.13;100.00;101182.38;4997522;28;20041;-72
2022/09/07 02:04:16;;;;;;;0.00;0.00;;;;;;;16.02;100.00;101169.88;4987805;28;20030;-72
2022/09/07 02:06:59;;;;;;;0.00;0.00;;;;;;;16.09;100.00;101180.13;4992171;28;20484;-72
2022/09/07 02:09:30;;;;;;;0.00;0.00;;;;;;;16.12;100.00;101177.97;4987511;28;20156;-72
2022/09/07 02:11:55;;;;;;;0.00;0.00;;;;;;;16.07;100.00;101157.75;4988869;28;20601;-72
2022/09/07 02:14:24;;;;;;;0.00;0.00;;;;;;;16.04;100.00;101143.50;4987158;28;20033;-72
2022/09/07 02:16:55;;;;;;;0.00;0.00;;;;;;;16.11;100.00;101156.47;4995079;28;20046;-72
2022/09/07 02:19:21;;;;;;;0.00;0.00;;;;;;;16.02;100.00;101163.63;4971508;28;20053;-72
2022/09/07 02:21:50;;;;;;;0.00;0.00;;;;;;;15.93;100.00;101153.66;4982394;28;20725;-72
2022/09/07 02:24:34;;;;;;;0.00;0.00;;;;;;;15.95;100.00;101163.34;4983224;28;20415;-72
2022/09/07 02:27:02;;;;;;;0.00;0.00;;;;;;;16.03;100.00;101151.75;5009137;28;20168;-72
2022/09/07 02:29:27;;;;;;;0.00;0.00;;;;;;;16.01;100.00;101156.50;4995339;28;20034;-72
2022/09/07 02:31:52;;;;;;;0.00;0.00;;;;;;;15.99;100.00;101153.09;4997762;28;20037;-72
2022/09/07 02:34:18;;;;;;;0.00;0.00;;;;;;;16.10;100.00;101162.88;4988294;28;20040;-72
2022/09/07 02:36:46;;;;;;;0.00;0.00;;;;;;;16.08;100.00;101175.72;4989025;28;20120;-72
2022/09/07 02:39:11;;;;;;;0.00;0.00;;;;;;;16.04;100.00;101173.28;4982325;28;20116;-73
2022/09/07 02:41:38;;;;;;;0.00;0.00;;;;;;;16.09;100.00;101174.72;4964618;28;20034;-72
2022/09/07 02:44:10;;;;;;;0.00;0.00;;;;;;;15.99;100.00;101143.09;4980681;28;20717;-72
2022/09/07 02:46:41;;;;;;;0.00;0.00;;;;;;;16.10;100.00;101155.59;4985469;28;20033;-72
2022/09/07 02:49:24;;;;;;;0.00;0.00;;;;;;;16.01;100.00;101142.97;4985956;28;20076;-72
2022/09/07 02:52:17;;;;;;;0.00;0.00;;;;;;;15.87;100.00;101138.88;4980340;28;20077;-72
2022/09/07 02:55:01;;;;;;;0.00;0.00;;;;;;;16.04;100.00;101154.34;4980672;28;20034;-72
2022/09/07 02:57:36;;;;;;;0.00;0.00;;;;;;;16.04;100.00;101153.47;4987858;28;20068;-73
2022/09/07 03:00:11;;;;;;;0.00;0.00;;;;;;;16.07;100.00;101141.50;4983318;28;20045;-73
2022/09/07 03:03:15;;;;;;;0.00;0.00;;;;;;;16.18;100.00;101144.88;5003266;28;20030;-72
2022/09/07 03:05:45;;;;;;;0.00;0.00;;;;;;;16.11;100.00;101145.63;4979178;28;20029;-73
2022/09/07 03:08:18;;;;;;;0.00;0.00;;;;;;;16.02;100.00;101150.09;4970770;28;20696;-72
2022/09/07 03:10:44;;;;;;;0.00;0.00;;;;;;;16.08;100.00;101137.78;4981212;28;20034;-72
2022/09/07 03:13:19;;;;;;;0.00;0.00;;;;;;;16.02;100.00;101107.59;4977236;28;20033;-72
2022/09/07 03:15:44;;;;;;;0.00;0.00;;;;;;;16.24;100.00;101124.44;4984625;28;20033;-72
2022/09/07 03:18:11;;;;;;;0.00;0.00;;;;;;;16.24;100.00;101118.19;4985170;28;20053;-72
2022/09/07 03:20:36;;;;;;;0.00;0.00;;;;;;;16.34;100.00;101121.69;4990690;28;20080;-72
2022/09/07 03:23:01;;;;;;;0.00;0.00;;;;;;;16.34;100.00;101130.69;4982662;28;20476;-72
2022/09/07 03:25:27;;;;;;;0.00;0.00;;;;;;;16.30;100.00;101150.94;4985652;28;21371;-72
2022/09/07 03:27:52;;;;;;;0.00;0.00;;;;;;;16.28;100.00;101135.88;4981325;28;20180;-73
2022/09/07 03:30:17;;;;;;;0.00;0.00;;;;;;;16.42;100.00;101151.59;4981007;28;20472;-72
2022/09/07 03:32:43;;;;;;;0.03;0.03;;;;;;;16.53;100.00;101144.28;4986217;28;20037;-72
2022/09/07 03:35:09;;;;;;;0.00;0.00;;;;;;;16.56;100.00;101125.84;4984155;28;20042;-72
2022/09/07 03:37:36;;;;;;;0.00;0.00;;;;;;;16.66;100.00;101135.81;4984636;28;20167;-73
2022/09/07 03:40:03;;;;;;;0.00;0.00;;;;;;;16.49;100.00;101103.06;4985709;28;20022;-73
2022/09/07 03:42:28;;;;;;;0.00;0.00;;;;;;;16.60;100.00;101124.56;4980026;28;20485;-73
2022/09/07 03:44:53;;;;;;;0.00;0.00;;;;;;;16.69;100.00;101128.19;4979921;28;20034;-72
2022/09/07 03:47:19;;;;;;;0.00;0.00;;;;;;;16.67;100.00;101145.63;4981956;28;20025;-73
2022/09/07 03:49:44;;;;;;;0.00;0.00;;;;;;;16.64;100.00;101136.81;4991547;28;20118;-73
2022/09/07 03:52:10;;;;;;;0.00;0.00;;;;;;;16.51;100.00;101116.47;4985794;28;20026;-72
2022/09/07 03:54:35;;;;;;;0.00;0.00;;;;;;;16.68;100.00;101131.91;4980078;28;20204;-72
2022/09/07 03:57:00;;;;;;;0.00;0.00;;;;;;;16.64;100.00;101125.09;4996896;28;20037;-72
2022/09/07 03:59:25;;;;;;;0.00;0.00;;;;;;;16.55;100.00;101126.03;4996855;28;20037;-72
2022/09/07 04:01:51;;;;;;;0.00;0.00;;;;;;;16.22;100.00;101088.53;5000372;28;20029;-72
2022/09/07 04:04:16;;;;;;;0.00;0.00;;;;;;;16.41;100.00;101143.66;4997056;28;20037;-72
2022/09/07 04:06:42;;;;;;;0.35;0.35;;;;;;;16.20;100.00;101133.88;4998567;28;20484;-72
2022/09/07 04:09:10;;;;;;;0.00;0.00;;;;;;;16.08;100.00;101126.97;4993337;28;20037;-72
2022/09/07 04:11:36;;;;;;;0.00;0.00;;;;;;;16.13;100.00;101135.50;5000932;28;20034;-72
2022/09/07 04:14:02;;;;;;;0.00;0.00;;;;;;;15.94;100.00;101129.13;4996958;28;20373;-72
2022/09/07 04:16:27;;;;;;;0.00;0.00;;;;;;;16.04;100.00;101148.06;5004939;28;20487;-72
2022/09/07 04:18:57;;;;;;;0.00;0.00;;;;;;;15.99;100.00;101143.09;4993823;28;20092;-72
2022/09/07 04:21:24;;;;;;;0.03;0.00;;;;;;;15.99;100.00;101136.84;5002004;28;20052;-72
2022/09/07 04:23:50;;;;;;;0.00;0.00;;;;;;;16.04;100.00;101139.94;5006373;28;20033;-73
2022/09/07 04:26:21;;;;;;;0.00;0.00;;;;;;;16.02;100.00;101125.72;5000206;28;20038;-72
2022/09/07 04:28:47;;;;;;;0.00;0.00;;;;;;;16.07;100.00;101123.38;5006476;28;20073;-72
2022/09/07 04:31:14;;;;;;;0.00;0.00;;;;;;;16.06;100.00;101118.97;4998903;28;20030;-72
2022/09/07 04:33:40;;;;;;;0.10;0.10;;;;;;;16.04;100.00;101120.97;5004011;28;20030;-72
2022/09/07 04:36:05;;;;;;;0.00;0.00;;;;;;;16.18;100.00;101131.34;5003222;28;20076;-72
2022/09/07 04:38:31;;;;;;;0.00;0.00;;;;;;;16.18;100.00;101109.66;4994802;28;20030;-72
2022/09/07 04:40:59;;;;;;;0.03;0.03;;;;;;;16.18;100.00;101114.22;4988927;28;20044;-72
2022/09/07 04:43:25;;;;;;;0.03;0.03;;;;;;;16.16;100.00;101110.78;4993146;28;20034;-72
2022/09/07 04:45:51;;;;;;;0.00;0.00;;;;;;;16.15;100.00;101118.09;4988968;28;20025;-72
2022/09/07 04:48:16;;;;;;;0.00;0.00;;;;;;;15.99;100.00;101115.16;4992890;28;20034;-72
2022/09/07 04:50:41;;;;;;;0.00;0.00;;;;;;;15.94;100.00;101118.31;4988431;28;20076;-72
2022/09/07 04:53:06;;;;;;;0.00;0.00;;;;;;;15.83;100.00;101130.13;4989994;28;20105;-72
2022/09/07 04:55:32;;;;;;;0.00;0.00;;;;;;;15.73;100.00;101126.63;5002372;28;20165;-72
2022/09/07 04:57:57;;;;;;;0.10;0.10;;;;;;;15.49;100.00;101081.94;5022022;28;20428;-72
2022/09/07 05:00:22;;;;;;;0.00;0.00;;;;;;;15.70;100.00;101127.75;5007060;28;20668;-72
2022/09/07 05:02:48;;;;;;;0.00;0.00;;;;;;;15.72;100.00;101131.16;4989857;28;20360;-67
2022/09/07 05:05:13;;;;;;;0.00;0.00;;;;;;;15.68;100.00;101134.31;4990314;28;20060;-68
2022/09/07 05:07:38;;;;;;;0.10;0.10;;;;;;;15.69;100.00;101127.91;5000591;28;20035;-72
2022/09/07 05:10:04;;;;;;;0.00;0.00;;;;;;;15.55;100.00;101121.09;4994349;28;20042;-72
2022/09/07 05:12:29;;;;;;;0.00;0.00;;;;;;;15.63;100.00;101155.56;4988392;28;20117;-72
2022/09/07 05:14:54;;;;;;;0.10;0.10;;;;;;;15.67;100.00;101155.09;4991316;28;20029;-73
2022/09/07 05:17:20;;;;;;;0.10;0.10;;;;;;;15.66;100.00;101153.41;4994650;28;20120;-73
2022/09/07 05:19:47;;;;;;;0.10;0.10;;;;;;;15.67;100.00;101159.69;4986225;28;20033;-68
2022/09/07 05:22:12;;;;;;;0.00;0.00;;;;;;;15.60;100.00;101159.41;4988665;28;20048;-73
2022/09/07 05:24:37;;;;;;;0.00;0.00;;;;;;;15.65;100.00;101143.56;4982305;28;20120;-72
2022/09/07 05:27:03;;;;;;;0.03;0.03;;;;;;;15.76;100.00;101147.94;4986752;28;20537;-72
2022/09/07 05:29:29;;;;;;;0.00;0.00;;;;;;;15.75;100.00;101146.28;4989219;28;20411;-72
2022/09/07 05:31:54;;;;;;;0.10;0.10;;;;;;;15.82;100.00;101143.84;4980253;28;20124;-73
2022/09/07 05:34:20;;;;;;;0.10;0.10;;;;;;;15.74;100.00;101125.63;4986348;28;20025;-71
2022/09/07 05:36:45;;;;;;;0.00;0.00;;;;;;;15.88;100.00;101143.28;4987329;28;20038;-73
2022/09/07 05:39:10;;;;;;;0.00;0.00;;;;;;;15.95;100.00;101151.66;4986732;28;21922;-73
2022/09/07 05:41:36;;;;;;;0.00;0.00;;;;;;;15.95;100.00;101152.50;4983753;28;20061;-72
2022/09/07 05:44:01;;;;;;;0.00;0.00;;;;;;;16.02;100.00;101156.34;4987909;28;20381;-73
2022/09/07 05:46:26;;;;;;;0.00;0.00;;;;;;;16.10;100.00;101152.03;4984213;28;20643;-71
2022/09/07 05:48:52;;;;;;;0.00;0.00;;;;;;;16.18;100.00;101144.88;4984500;28;20408;-72
2022/09/07 05:51:17;;;;;;;0.00;0.00;;;;;;;16.28;100.00;101150.25;4985149;28;20057;-72
2022/09/07 05:53:46;;;;;;;0.00;0.00;;;;;;;16.40;100.00;101150.91;4988893;28;20032;-73
2022/09/07 05:56:11;;;;;;;0.05;0.00;;;;;;;16.44;100.00;101146.91;4981708;28;20095;-72
2022/09/07 05:58:37;;;;;;;0.00;0.00;;;;;;;16.45;100.00;101140.47;4991309;28;20022;-73
2022/09/07 06:01:10;;;;;;;0.10;0.10;;;;;;;16.45;100.00;101145.03;4992633;28;20384;-72
2022/09/07 06:03:37;;;;;;;0.00;0.00;;;;;;;16.47;100.00;101146.59;4984408;28;20107;-72
2022/09/07 06:06:14;;;;;;;0.00;0.00;;;;;;;16.54;100.00;101146.84;4984208;28;20026;-72
2022/09/07 06:08:43;;;;;;;0.00;0.00;;;;;;;16.61;100.00;101134.41;4999601;28;20038;-72
2022/09/07 06:11:12;;;;;;;0.00;0.00;;;;;;;16.62;100.00;101129.81;4992931;28;20057;-73
2022/09/07 06:13:37;;;;;;;0.05;0.05;;;;;;;16.60;100.00;101129.09;4996207;28;20464;-72
2022/09/07 06:16:05;;;;;;;0.00;0.00;;;;;;;16.56;100.00;101147.53;4997173;28;20091;-72
2022/09/07 06:18:31;;;;;;;0.00;0.00;;;;;;;16.64;100.00;101147.66;4995262;28;20037;-72
2022/09/07 06:21:06;;;;;;;0.00;0.00;;;;;;;16.62;100.00;101146.06;4996010;28;20472;-72
2022/09/07 06:23:32;;;;;;;0.00;0.00;;;;;;;16.53;100.00;101155.13;4995028;28;20418;-73
2022/09/07 06:25:58;;;;;;;0.00;0.00;;;;;;;16.62;100.00;101156.91;4999933;28;20037;-73
2022/09/07 06:28:31;;;;;;;0.00;0.00;;;;;;;16.51;100.00;101143.59;4998271;28;20361;-72
2022/09/07 06:31:01;;;;;;;0.00;0.00;;;;;;;16.58;100.00;101159.09;4995683;28;20690;-72
2022/09/07 06:33:27;;;;;;;0.00;0.00;;;;;;;16.70;100.00;101167.00;5011670;28;20038;-74
2022/09/07 06:36:00;;;;;;;0.00;0.00;;;;;;;16.59;100.00;101155.38;4996415;28;20032;-72
2022/09/07 06:38:35;;;;;;;0.05;0.05;;;;;;;16.70;100.00;101172.41;4993309;28;20065;-73
2022/09/07 06:41:03;;;;;;;0.00;0.00;;;;;;;16.45;100.00;101150.44;4986107;28;20366;-72
2022/09/07 06:43:28;;;;;;;0.00;0.00;;;;;;;16.63;100.00;101181.19;4995864;28;20034;-72
2022/09/07 06:45:54;;;;;;;0.00;0.00;;;;;;;16.68;100.00;101169.88;4998151;28;20024;-72
2022/09/07 06:48:20;;;;;;;0.00;0.00;;;;;;;16.88;100.00;101167.03;4996227;28;20579;-72
2022/09/07 06:50:57;;;;;;;0.00;0.00;;;;;;;17.02;100.00;101174.69;4999328;28;20030;-72
2022/09/07 06:53:23;;;;;;;0.00;0.00;;;;;;;17.05;100.00;101176.22;5006183;28;20022;-69
2022/09/07 06:55:49;;;;;;;0.00;0.00;;;;;;;16.98;100.00;101172.41;5002818;28;20435;-71
2022/09/07 06:58:14;;;;;;;0.00;0.00;;;;;;;16.96;100.00;101172.59;4994827;28;20030;-72
2022/09/07 07:00:39;;;;;;;0.00;0.00;;;;;;;16.82;100.00;101173.09;4992231;28;20034;-71
2022/09/07 07:03:04;;;;;;;0.10;0.10;;;;;;;16.89;100.00;101175.03;4993766;28;20041;-71
2022/09/07 07:05:30;;;;;;;0.00;0.00;;;;;;;16.92;100.00;101179.28;4995481;28;20039;-71
2022/09/07 07:07:56;;;;;;;0.00;0.00;;;;;;;16.96;100.00;101179.84;4991442;28;20471;-71
2022/09/07 07:10:21;;;;;;;0.00;0.00;;;;;;;16.77;100.00;101159.97;4991621;28;20037;-76
2022/09/07 07:12:46;;;;;;;0.38;0.00;;;;;;;16.96;100.00;101183.44;4994576;28;20026;-74
2022/09/07 07:15:12;;;;;;;0.00;0.00;;;;;;;17.09;100.00;101192.03;4990984;28;20038;-74
2022/09/07 07:17:37;;;;;;;0.00;0.00;;;;;;;17.18;100.00;101193.00;4998220;28;20053;-73
2022/09/07 07:20:03;;;;;;;0.10;0.10;;;;;;;17.38;100.00;101192.81;4991559;28;20034;-74
2022/09/07 07:22:28;;;;;;;0.00;0.00;;;;;;;17.45;100.00;101174.03;5000699;28;20495;-74
2022/09/07 07:24:53;;;;;;;0.00;0.00;;;;;;;17.64;100.00;101184.72;4997966;28;20096;-72
2022/09/07 07:27:20;;;;;;;0.00;0.00;;;;;;;17.70;100.00;101191.41;4992345;28;20396;-73
2022/09/07 07:29:45;;;;;;;0.00;0.00;;;;;;;17.34;100.00;101196.84;4992601;28;20030;-73
2022/09/07 07:32:10;;;;;;;0.00;0.00;;;;;;;17.27;100.00;101188.50;4996246;28;20033;-73
2022/09/07 07:34:36;;;;;;;0.00;0.00;;;;;;;17.26;100.00;101170.50;4996254;28;20140;-74
2022/09/07 07:37:01;;;;;;;0.00;0.00;;;;;;;17.24;100.00;101167.09;4996569;28;20483;-72
2022/09/07 07:39:26;;;;;;;0.00;0.00;;;;;;;17.23;100.00;101190.63;4997602;28;20034;-73
2022/09/07 07:41:52;;;;;;;0.00;0.00;;;;;;;17.40;100.00;101196.25;4996330;28;20071;-73
2022/09/07 07:44:17;;;;;;;0.00;0.00;;;;;;;17.53;100.00;101193.13;4993114;28;20320;-73
2022/09/07 07:46:49;;;;;;;0.00;0.00;;;;;;;17.72;100.00;101197.53;4992216;28;20060;-73
2022/09/07 07:49:14;;;;;;;0.00;0.00;;;;;;;17.88;100.00;101209.50;4996632;28;20041;-73
2022/09/07 07:51:40;;;;;;;0.00;0.00;;;;;;;18.04;100.00;101211.53;4996269;28;20076;-72
2022/09/07 07:54:05;;;;;;;0.00;0.00;;;;;;;18.34;100.00;101207.44;4994629;28;20041;-72
2022/09/07 07:56:30;;;;;;;0.00;0.00;;;;;;;18.51;100.00;101211.09;4979127;28;20065;-73
2022/09/07 07:58:56;;;;;;;0.00;0.00;;;;;;;18.68;100.00;101208.44;4980477;28;20037;-72
2022/09/07 08:01:21;;;;;;;0.10;0.10;;;;;;;18.86;100.00;101219.22;4991816;28;20435;-70
2022/09/07 08:03:47;;;;;;;0.00;0.00;;;;;;;18.97;100.00;101208.06;4990171;28;20032;-71
2022/09/07 08:06:16;;;;;;;0.00;0.00;;;;;;;19.20;100.00;101221.03;4992735;28;20108;-71
2022/09/07 08:08:42;;;;;;;0.00;0.00;;;;;;;19.23;100.00;101218.00;4991241;28;20030;-72
2022/09/07 08:11:16;;;;;;;0.00;0.00;;;;;;;19.21;99.42;101222.75;4996293;28;20028;-73
2022/09/07 08:13:42;;;;;;;0.00;0.00;;;;;;;19.24;98.74;101225.13;4992063;28;20018;-75
2022/09/07 08:16:08;;;;;;;0.00;0.00;;;;;;;19.14;98.40;101206.25;4975669;28;20951;-69
2022/09/07 08:18:35;;;;;;;0.00;0.00;;;;;;;19.16;99.90;101217.81;4992802;28;20657;-75
2022/09/07 08:21:02;;;;;;;0.00;0.00;;;;;;;19.33;99.70;101228.72;4989471;28;20124;-73
2022/09/07 08:23:30;;;;;;;0.00;0.00;;;;;;;19.46;97.68;101222.78;4992730;28;20037;-75
2022/09/07 08:25:57;;;;;;;0.00;0.00;;;;;;;19.66;100.00;101227.88;4991000;28;20097;-71
2022/09/07 08:28:24;;;;;;;0.00;0.00;;;;;;;19.88;97.85;101232.66;4992150;28;20022;-76
2022/09/07 08:30:49;;;;;;;0.03;0.03;;;;;;;19.79;95.86;101234.53;4991726;28;20065;-73
2022/09/07 08:33:15;;;;;;;0.00;0.00;;;;;;;19.70;96.21;101210.19;4991356;28;20160;-74
2022/09/07 08:35:40;;;;;;;0.03;0.03;;;;;;;19.78;95.64;101232.81;4974773;28;20033;-74
2022/09/07 08:38:05;;;;;;;0.00;0.00;;;;;;;19.73;94.57;101224.31;4992334;28;20026;-75
2022/09/07 08:40:34;;;;;;;0.00;0.00;;;;;;;20.02;94.45;101236.56;4993369;28;20034;-78
2022/09/07 08:43:22;;;;;;;0.00;0.00;;;;;;;20.16;94.05;101234.19;5008609;28;20041;-75
2022/09/07 08:45:50;;;;;;;0.00;0.00;;;;;;;20.34;92.68;101239.44;4988460;28;20145;-76
2022/09/07 08:48:19;;;;;;;0.00;0.00;;;;;;;20.33;91.99;101215.91;4990069;28;20100;-73
2022/09/07 08:50:59;;;;;;;0.00;0.00;;;;;;;20.58;89.59;101246.66;4978407;28;20041;-74
2022/09/07 08:53:25;;;;;;;0.00;0.00;;;;;;;20.48;88.73;101235.13;4997917;28;20036;-74
2022/09/07 08:55:55;;;;;;;0.00;0.00;;;;;;;20.69;88.35;101250.88;4996092;28;20057;-79
2022/09/07 08:58:30;;;;;;;0.00;0.00;;;;;;;20.89;87.38;101254.09;4997598;28;20034;-75
2022/09/07 09:00:55;;;;;;;0.00;0.00;;;;;;;21.01;88.02;101254.53;4992606;28;20026;-79
2022/09/07 09:03:23;;;;;;;0.00;0.00;;;;;;;;;;5012088;28;20034;-77
2022/09/07 09:06:02;;;;;;;0.00;0.00;;;;;;;21.49;86.77;101246.22;4995865;28;20032;-78
2022/09/07 09:09:26;;;;;;;0.00;0.00;;;;;;;21.67;84.88;101253.28;4998421;28;20757;-80
2022/09/07 09:12:08;;;;;;;0.00;0.00;;;;;;;21.66;83.60;101252.44;4913311;28;20047;-76
2022/09/07 09:15:11;;;;;;;0.00;0.00;;;;;;;21.76;83.71;101252.19;4930531;28;20127;-79
2022/09/07 09:17:46;;;;;;;0.00;0.00;;;;;;;21.87;81.50;101256.38;4991873;28;20523;-75
2022/09/07 09:20:46;;;;;;;0.00;0.00;;;;;;;21.90;82.21;101253.25;5005468;28;20026;-75
2022/09/07 09:23:14;;;;;;;0.00;0.00;;;;;;;21.97;79.92;101250.63;4994921;28;20041;-74
2022/09/07 09:25:46;;;;;;;0.00;0.00;;;;;;;22.08;80.00;101247.47;4995709;28;20025;-75
2022/09/07 09:28:11;;;;;;;0.00;0.00;;;;;;;22.07;77.74;101240.28;4993058;28;20049;-73
2022/09/07 09:30:37;;;;;;;0.00;0.00;;;;;;;22.26;78.91;101251.72;4994660;28;20377;-76
2022/09/07 09:33:20;;;;;;;0.00;0.00;;;;;;;22.36;77.83;101252.31;4995888;28;20030;-78
2022/09/07 09:35:48;;;;;;;0.00;0.00;;;;;;;22.42;79.38;101246.06;4979280;28;20041;-75
2022/09/07 09:38:29;;;;;;;0.00;0.00;;;;;;;22.69;78.86;101262.03;4996559;28;20076;-74
2022/09/07 09:40:57;;;;;;;0.00;0.00;;;;;;;22.82;76.69;101254.00;4998616;28;20112;-76
2022/09/07 09:43:50;;;;;;;0.00;0.00;;;;;;;22.79;74.99;101251.63;5001359;28;20527;-75
2022/09/07 09:46:27;;;;;;;0.00;0.00;;;;;;;22.99;76.58;101249.16;5000698;28;20086;-74
2022/09/07 09:48:56;;;;;;;0.00;0.00;;;;;;;22.93;76.25;101255.38;4996920;28;20064;-77
2022/09/07 09:51:22;;;;;;;0.00;0.00;;;;;;;23.10;75.44;101236.00;4998858;28;20486;-80
2022/09/07 09:54:04;;;;;;;0.00;0.00;;;;;;;23.26;72.05;101235.78;4996702;28;20034;-73
2022/09/07 09:56:56;;;;;;;0.00;0.00;;;;;;;23.27;74.22;101237.50;4993791;28;20068;-75
2022/09/07 09:59:28;;;;;;;0.00;0.00;;;;;;;23.13;73.04;101247.41;4992554;28;20041;-74
2022/09/07 10:01:54;;;;;;;0.00;0.00;;;;;;;22.81;72.31;101254.19;4995880;28;20033;-75
2022/09/07 10:04:22;;;;;;;0.00;0.00;;;;;;;23.38;72.82;101241.59;4996810;28;20033;-74
2022/09/07 10:07:06;;;;;;;0.00;0.00;;;;;;;23.74;69.80;101237.94;4993101;28;20034;-77
2022/09/07 10:09:35;;;;;;;0.00;0.00;;;;;;;23.91;71.41;101248.63;4995194;28;20166;-77
2022/09/07 10:12:02;;;;;;;0.00;0.00;;;;;;;24.03;69.23;101238.00;5013815;28;20105;-75
2022/09/07 10:14:55;;;;;;;0.00;0.00;;;;;;;24.25;69.17;101238.78;4992691;28;20084;-76
2022/09/07 10:17:34;;;;;;;0.00;0.00;;;;;;;24.66;65.85;101239.84;4992313;28;20137;-75
2022/09/07 10:20:21;;;;;;;0.00;0.00;;;;;;;24.94;66.91;101244.44;4996992;28;20044;-76
2022/09/07 10:22:52;;;;;;;0.00;0.00;;;;;;;25.34;65.75;101232.72;4985480;28;20192;-75
2022/09/07 10:25:32;;;;;;;0.00;0.00;;;;;;;25.54;63.81;101228.13;4998188;28;20041;-75
2022/09/07 10:28:13;;;;;;;0.00;0.00;;;;;;;25.60;64.30;101227.28;4998839;28;20037;-77
2022/09/07 10:30:58;;;;;;;0.00;0.00;;;;;;;25.94;61.17;101210.78;4993589;28;20058;-77
2022/09/07 10:33:51;;;;;;;0.00;0.00;;;;;;;26.29;59.17;101226.19;4993576;28;20030;-77
2022/09/07 10:36:22;;;;;;;0.00;0.00;;;;;;;26.34;57.66;101229.16;4995418;28;20064;-75
2022/09/07 10:38:58;;;;;;;0.00;0.00;;;;;;;26.91;56.40;101231.31;4998827;28;20467;-74
2022/09/07 10:41:35;;;;;;;0.00;0.00;;;;;;;26.56;56.20;101224.22;5009416;28;20033;-79
2022/09/07 10:44:00;;;;;;;0.00;0.00;;;;;;;26.88;57.58;101232.59;4993276;28;20041;-72
2022/09/07 10:46:28;;;;;;;0.00;0.00;;;;;;;26.63;55.48;101230.53;5000337;28;20420;-78
2022/09/07 10:49:12;;;;;;;0.00;0.00;;;;;;;26.38;56.32;101227.66;5000274;28;20030;-76
2022/09/07 10:52:20;;;;;;;0.00;0.00;;;;;;;26.77;58.59;101228.56;5003890;28;20032;-76
2022/09/07 10:54:52;;;;;;;0.00;0.00;;;;;;;26.53;58.09;101229.31;4997755;28;20480;-75
2022/09/07 10:57:36;;;;;;;0.00;0.00;;;;;;;26.92;57.15;101225.56;5002694;28;20030;-77
2022/09/07 11:00:11;;;;;;;0.00;0.00;;;;;;;27.14;54.67;101211.50;4999404;28;20064;-74
2022/09/07 11:02:36;;;;;;;0.00;0.00;;;;;;;28.02;52.91;101213.59;4998629;28;20030;-77
2022/09/07 11:05:11;;;;;;;0.00;0.00;;;;;;;27.63;52.16;101227.50;4996681;28;20350;-75
2022/09/07 11:07:49;;;;;;;0.00;0.00;;;;;;;26.60;53.72;101214.47;4998936;28;20609;-73
2022/09/07 11:10:14;;;;;;;0.00;0.00;;;;;;;27.19;52.75;101211.66;5002583;28;20029;-74
2022/09/07 11:12:41;;;;;;;0.00;0.00;;;;;;;27.05;52.89;101188.00;4998888;28;20048;-76
2022/09/07 11:15:12;;;;;;;0.00;0.00;;;;;;;27.33;52.79;101206.91;4984463;28;20117;-75
2022/09/07 11:17:55;;;;;;;0.00;0.00;;;;;;;26.42;51.25;101193.16;5011846;28;20034;-75
2022/09/07 11:20:26;;;;;;;0.00;0.00;;;;;;;27.73;50.70;101210.47;4998875;28;20026;-75
2022/09/07 11:23:03;;;;;;;0.00;0.00;;;;;;;27.38;50.98;101207.06;4996830;28;20044;-74
2022/09/07 11:25:50;;;;;;;0.00;0.00;;;;;;;26.03;51.74;101203.16;5002790;28;20030;-77
2022/09/07 11:28:25;;;;;;;0.00;0.00;;;;;;;25.84;53.39;101183.72;4997589;28;20113;-73
2022/09/07 11:30:56;;;;;;;0.00;0.00;;;;;;;27.05;51.88;101201.78;5002275;28;20599;-73
2022/09/07 11:33:33;;;;;;;0.00;0.00;;;;;;;27.27;51.54;101199.53;4997667;28;20073;-70
2022/09/07 11:36:02;;;;;;;0.00;0.00;;;;;;;28.14;49.07;101192.47;4996994;28;20060;-77